createdAt,value
2022-08-24T00:01:33.298Z,98385.00
2022-08-24T00:04:16.312Z,98369.00
2022-08-24T00:06:52.445Z,98370.00
2022-08-24T00:09:26.982Z,98371.00
2022-08-24T00:12:06.672Z,98373.00
2022-08-24T00:14:44.925Z,98387.00
2022-08-24T00:17:33.802Z,98377.00
2022-08-24T00:20:16.388Z,98374.00
2022-08-24T00:23:03.946Z,98367.00
2022-08-24T00:26:56.100Z,98381.00
2022-08-24T00:29:41.683Z,98370.00
2022-08-24T00:32:32.786Z,98372.00
2022-08-24T00:35:09.145Z,98377.00
2022-08-24T00:37:43.952Z,98372.00
2022-08-24T00:40:34.376Z,98372.00
2022-08-24T00:47:28.078Z,98383.00
2022-08-24T00:50:07.471Z,98377.00
2022-08-24T00:52:46.584Z,98373.00
2022-08-24T00:55:29.282Z,98366.00
2022-08-24T00:58:11.229Z,98371.00
2022-08-24T01:00:57.076Z,98379.00
2022-08-24T01:03:38.788Z,98359.00
2022-08-24T01:06:16.655Z,98364.00
2022-08-24T01:08:56.809Z,98351.00
2022-08-24T01:11:34.704Z,98360.00
2022-08-24T01:14:09.726Z,98373.00
2022-08-24T01:17:17.765Z,98384.00
2022-08-24T01:20:00.637Z,98369.00
2022-08-24T01:24:07.803Z,98369.00
2022-08-24T01:31:18.394Z,98378.00
2022-08-24T01:33:58.902Z,98372.00
2022-08-24T01:36:35.728Z,98384.00
2022-08-24T01:39:15.667Z,98380.00
2022-08-24T01:41:51.613Z,98383.00
2022-08-24T01:44:34.602Z,98385.00
2022-08-24T01:47:26.397Z,98386.00
2022-08-24T01:50:34.627Z,98373.00
2022-08-24T01:53:20.852Z,98376.00
2022-08-24T01:56:23.151Z,98380.00
2022-08-24T01:59:22.476Z,98375.00
2022-08-24T02:02:00.213Z,98387.00
2022-08-24T02:04:44.851Z,98382.00
2022-08-24T02:07:20.137Z,98385.00
2022-08-24T02:09:54.784Z,98381.00
2022-08-24T02:12:29.260Z,98392.00
2022-08-24T02:15:04.032Z,98382.00
2022-08-24T02:17:49.549Z,98381.00
2022-08-24T02:20:32.784Z,98379.00
2022-08-24T02:23:09.179Z,98390.00
2022-08-24T02:25:58.329Z,98390.00
2022-08-24T02:28:32.741Z,98377.00
2022-08-24T02:31:09.768Z,98396.00
2022-08-24T02:33:52.278Z,98380.00
2022-08-24T02:36:28.797Z,98384.00
2022-08-24T02:39:16.091Z,98396.00
2022-08-24T02:42:21.634Z,98383.00
2022-08-24T02:45:05.089Z,98388.00
2022-08-24T02:47:59.538Z,98392.00
2022-08-24T02:50:34.340Z,98391.00
2022-08-24T02:53:17.544Z,98394.00
2022-08-24T02:56:15.516Z,98381.00
2022-08-24T02:58:53.180Z,98375.00
2022-08-24T03:01:30.345Z,98390.00
2022-08-24T03:04:05.508Z,98370.00
2022-08-24T03:06:45.987Z,98385.00
2022-08-24T03:09:23.707Z,98403.00
2022-08-24T03:12:04.329Z,98383.00
2022-08-24T03:14:45.828Z,98373.00
2022-08-24T03:18:15.536Z,98384.00
2022-08-24T03:21:33.915Z,98380.00
2022-08-24T03:24:24.174Z,98366.00
2022-08-24T03:27:07.301Z,98358.00
2022-08-24T03:34:16.555Z,98380.00
2022-08-24T03:36:58.411Z,98380.00
2022-08-24T03:40:27.624Z,98377.00
2022-08-24T03:43:47.420Z,98385.00
2022-08-24T03:46:57.673Z,98378.00
2022-08-24T03:49:32.576Z,98385.00
2022-08-24T03:52:08.245Z,98392.00
2022-08-24T03:54:42.941Z,98383.00
2022-08-24T03:57:39.968Z,98384.00
2022-08-24T04:00:18.568Z,98393.00
2022-08-24T04:02:53.062Z,98363.00
2022-08-24T04:05:27.440Z,98380.00
2022-08-24T04:08:02.045Z,98390.00
2022-08-24T04:10:45.429Z,98380.00
2022-08-24T04:13:34.189Z,98382.00
2022-08-24T04:16:13.547Z,98365.00
2022-08-24T04:18:52.226Z,98376.00
2022-08-24T04:21:31.152Z,98384.00
2022-08-24T04:24:11.682Z,98374.00
2022-08-24T04:26:46.457Z,98387.00
2022-08-24T04:29:22.145Z,98382.00
2022-08-24T04:32:06.148Z,98381.00
2022-08-24T04:34:47.095Z,98387.00
2022-08-24T04:37:35.212Z,98387.00
2022-08-24T04:40:33.758Z,98378.00
2022-08-24T04:43:10.407Z,98399.00
2022-08-24T04:45:48.666Z,98399.00
2022-08-24T04:48:36.865Z,98402.00
2022-08-24T04:51:14.121Z,98395.00
2022-08-24T04:53:49.668Z,98397.00
2022-08-24T04:56:26.139Z,98406.00
2022-08-24T04:59:00.795Z,98405.00
2022-08-24T05:01:35.721Z,98412.00
2022-08-24T05:04:11.695Z,98418.00
2022-08-24T05:06:54.411Z,98420.00
2022-08-24T05:09:34.428Z,98431.00
2022-08-24T05:12:10.509Z,98424.00
2022-08-24T05:14:46.089Z,98415.00
2022-08-24T05:17:20.457Z,98398.00
2022-08-24T05:20:00.122Z,98418.00
2022-08-24T05:22:46.582Z,98423.00
2022-08-24T05:25:22.520Z,98421.00
2022-08-24T05:28:22.006Z,98410.00
2022-08-24T05:31:21.655Z,98410.00
2022-08-24T05:34:09.969Z,98426.00
2022-08-24T05:37:23.681Z,98426.00
2022-08-24T05:40:20.462Z,98421.00
2022-08-24T05:42:58.602Z,98420.00
2022-08-24T05:45:32.994Z,98423.00
2022-08-24T05:48:07.405Z,98415.00
2022-08-24T05:50:42.078Z,98434.00
2022-08-24T05:53:18.051Z,98451.00
2022-08-24T05:55:52.642Z,98425.00
2022-08-24T05:58:31.216Z,98435.00
2022-08-24T06:01:10.436Z,98434.00
2022-08-24T06:03:45.729Z,98438.00
2022-08-24T06:06:23.377Z,98435.00
2022-08-24T06:09:01.668Z,98448.00
2022-08-24T06:11:48.940Z,98435.00
2022-08-24T06:14:26.954Z,98458.00
2022-08-24T06:17:16.563Z,98454.00
2022-08-24T06:19:51.992Z,98452.00
2022-08-24T06:22:27.077Z,98448.00
2022-08-24T06:30:32.117Z,98454.00
2022-08-24T06:34:26.068Z,98446.00
2022-08-24T06:37:05.643Z,98445.00
2022-08-24T06:39:40.062Z,98438.00
2022-08-24T06:42:16.738Z,98453.00
2022-08-24T06:44:51.572Z,98449.00
2022-08-24T06:47:28.017Z,98448.00
2022-08-24T06:50:04.696Z,98448.00
2022-08-24T06:52:40.587Z,98468.00
2022-08-24T06:55:16.266Z,98462.00
2022-08-24T06:57:52.777Z,98469.00
2022-08-24T07:00:28.296Z,98462.00
2022-08-24T07:03:03.341Z,98455.00
2022-08-24T07:05:40.554Z,98469.00
2022-08-24T07:08:16.429Z,98472.00
2022-08-24T07:10:51.572Z,98471.00
2022-08-24T07:13:26.252Z,98476.00
2022-08-24T07:16:01.932Z,98474.00
2022-08-24T07:18:36.673Z,98474.00
2022-08-24T07:21:11.887Z,98484.00
2022-08-24T07:24:12.749Z,98475.00
2022-08-24T07:27:04.211Z,98487.00
2022-08-24T07:34:07.140Z,98475.00
2022-08-24T07:37:21.490Z,98477.00
2022-08-24T07:39:58.399Z,98487.00
2022-08-24T07:42:33.379Z,98477.00
2022-08-24T07:45:11.837Z,98493.00
2022-08-24T07:47:54.577Z,98485.00
2022-08-24T07:50:34.368Z,98496.00
2022-08-24T07:53:23.971Z,98487.00
2022-08-24T07:56:04.789Z,98496.00
2022-08-24T07:58:39.674Z,98481.00
2022-08-24T08:01:16.485Z,98480.00
2022-08-24T08:03:52.645Z,98490.00
2022-08-24T08:06:28.979Z,98482.00
2022-08-24T08:09:05.726Z,98492.00
2022-08-24T08:11:42.167Z,98495.00
2022-08-24T08:14:29.279Z,98464.00
2022-08-24T08:22:24.370Z,98482.00
2022-08-24T08:25:41.615Z,98491.00
2022-08-24T08:28:35.922Z,98493.00
2022-08-24T08:36:10.677Z,98490.00
2022-08-24T08:39:40.565Z,98483.00
2022-08-24T08:43:15.475Z,98479.00
2022-08-24T08:46:40.553Z,98479.00
2022-08-24T08:49:56.913Z,98471.00
2022-08-24T08:53:07.931Z,98466.00
2022-08-24T08:55:47.317Z,98469.00
2022-08-24T08:58:57.061Z,98471.00
2022-08-24T09:01:47.492Z,98462.00
2022-08-24T09:04:49.003Z,98458.00
2022-08-24T09:07:44.611Z,98467.00
2022-08-24T09:10:46.792Z,98470.00
2022-08-24T09:22:11.114Z,98465.00
2022-08-24T09:25:28.511Z,98471.00
2022-08-24T09:33:00.313Z,98474.00
2022-08-24T09:36:01.839Z,98447.00
2022-08-24T09:39:21.024Z,98462.00
2022-08-24T09:42:43.044Z,98464.00
2022-08-24T09:46:08.372Z,98471.00
2022-08-24T09:49:27.129Z,98463.00
2022-08-24T09:52:52.347Z,98461.00
2022-08-24T09:56:03.757Z,98458.00
2022-08-24T09:59:00.251Z,98459.00
2022-08-24T10:06:09.257Z,98465.00
2022-08-24T10:13:14.306Z,98442.00
2022-08-24T10:16:18.890Z,98445.00
2022-08-24T10:19:07.631Z,98445.00
2022-08-24T10:21:54.375Z,98442.00
2022-08-24T10:25:15.387Z,98424.00
2022-08-24T10:28:48.275Z,98430.00
2022-08-24T10:31:43.137Z,98429.00
2022-08-24T10:34:48.472Z,98425.00
2022-08-24T10:38:35.276Z,98423.00
2022-08-24T10:42:38.207Z,98424.00
2022-08-24T10:45:39.736Z,98415.00
2022-08-24T10:49:09.517Z,98418.00
2022-08-24T10:52:12.306Z,98419.00
2022-08-24T10:55:25.927Z,98423.00
2022-08-24T10:58:44.401Z,98422.00
2022-08-24T11:02:09.536Z,98429.00
2022-08-24T11:05:05.595Z,98429.00
2022-08-24T11:07:59.055Z,98428.00
2022-08-24T11:10:47.233Z,98429.00
2022-08-24T11:13:39.877Z,98428.00
2022-08-24T11:16:30.583Z,98421.00
2022-08-24T11:19:34.319Z,98420.00
2022-08-24T11:22:44.304Z,98419.00
2022-08-24T11:25:32.247Z,98423.00
2022-08-24T11:28:22.814Z,98424.00
2022-08-24T11:31:04.753Z,98416.00
2022-08-24T11:33:50.368Z,98420.00
2022-08-24T11:36:31.238Z,98415.00
2022-08-24T11:39:23.866Z,98411.00
2022-08-24T11:42:46.315Z,98406.00
2022-08-24T11:45:36.251Z,98406.00
2022-08-24T11:48:38.412Z,98399.00
2022-08-24T11:51:32.484Z,98398.00
2022-08-24T11:55:46.944Z,98411.00
2022-08-24T11:58:46.229Z,98410.00
2022-08-24T12:01:35.930Z,98411.00
2022-08-24T12:04:44.078Z,98407.00
2022-08-24T12:07:41.408Z,98399.00
2022-08-24T12:10:59.012Z,98402.00
2022-08-24T12:14:06.566Z,98391.00
2022-08-24T12:18:14.352Z,98401.00
2022-08-24T12:21:04.701Z,98396.00
2022-08-24T12:23:44.134Z,98397.00
2022-08-24T12:26:32.794Z,98394.00
2022-08-24T12:29:17.387Z,98388.00
2022-08-24T12:32:02.787Z,98397.00
2022-08-24T12:34:56.919Z,98400.00
2022-08-24T12:37:40.148Z,98392.00
2022-08-24T12:40:28.950Z,98384.00
2022-08-24T12:43:08.740Z,98393.00
2022-08-24T12:45:45.162Z,98390.00
2022-08-24T12:48:27.528Z,98386.00
2022-08-24T12:51:22.305Z,98383.00
2022-08-24T12:54:38.488Z,98381.00
2022-08-24T12:57:34.573Z,98382.00
2022-08-24T13:00:26.207Z,98382.00
2022-08-24T13:03:05.395Z,98390.00
2022-08-24T13:05:44.300Z,98374.00
2022-08-24T13:08:43.220Z,98382.00
2022-08-24T13:11:34.159Z,98389.00
2022-08-24T13:14:24.519Z,98388.00
2022-08-24T13:17:27.602Z,98371.00
2022-08-24T13:20:30.534Z,98371.00
2022-08-24T13:23:19.916Z,98363.00
2022-08-24T13:26:01.485Z,98375.00
2022-08-24T13:28:49.736Z,98367.00
2022-08-24T13:31:50.720Z,98369.00
2022-08-24T13:34:52.452Z,98364.00
2022-08-24T13:38:25.887Z,98363.00
2022-08-24T13:41:13.822Z,98372.00
2022-08-24T13:43:57.525Z,98374.00
2022-08-24T13:46:57.273Z,98363.00
2022-08-24T13:49:51.589Z,98360.00
2022-08-24T13:52:38.958Z,98369.00
2022-08-24T13:55:40.389Z,98362.00
2022-08-24T13:58:34.068Z,98367.00
2022-08-24T14:01:31.411Z,98367.00
2022-08-24T14:04:45.059Z,98368.00
2022-08-24T14:07:23.542Z,98364.00
2022-08-24T14:10:37.810Z,98355.00
2022-08-24T14:13:29.825Z,98359.00
2022-08-24T14:16:31.089Z,98350.00
2022-08-24T14:19:17.046Z,98348.00
2022-08-24T14:21:59.437Z,98351.00
2022-08-24T14:24:46.110Z,98349.00
2022-08-24T14:27:43.396Z,98347.00
2022-08-24T14:30:50.461Z,98336.00
2022-08-24T14:33:44.850Z,98341.00
2022-08-24T14:36:46.614Z,98335.00
2022-08-24T14:39:58.557Z,98343.00
2022-08-24T14:43:21.925Z,98339.00
2022-08-24T14:46:07.316Z,98335.00
2022-08-24T14:48:55.485Z,98342.00
2022-08-24T14:51:54.223Z,98341.00
2022-08-24T14:54:41.138Z,98334.00
2022-08-24T14:57:42.646Z,98335.00
2022-08-24T15:00:22.575Z,98335.00
2022-08-24T15:03:12.952Z,98338.00
2022-08-24T15:06:25.571Z,98331.00
2022-08-24T15:09:19.802Z,98323.00
2022-08-24T15:12:26.256Z,98335.00
2022-08-24T15:15:15.289Z,98338.00
2022-08-24T15:18:01.869Z,98335.00
2022-08-24T15:21:26.800Z,98335.00
2022-08-24T15:24:14.355Z,98325.00
2022-08-24T15:27:16.026Z,98326.00
2022-08-24T15:30:23.584Z,98329.00
2022-08-24T15:33:09.816Z,98331.00
2022-08-24T15:36:09.132Z,98324.00
2022-08-24T15:38:44.460Z,98328.00
2022-08-24T15:41:43.033Z,98334.00
2022-08-24T15:44:24.489Z,98327.00
2022-08-24T15:47:25.336Z,98327.00
2022-08-24T15:50:09.604Z,98323.00
2022-08-24T15:53:02.943Z,98330.00
2022-08-24T15:55:43.366Z,98330.00
2022-08-24T15:58:37.163Z,98325.00
2022-08-24T16:01:46.847Z,98332.00
2022-08-24T16:04:49.080Z,98338.00
2022-08-24T16:07:28.295Z,98335.00
2022-08-24T16:10:14.488Z,98350.00
2022-08-24T16:12:55.444Z,98342.00
2022-08-24T16:15:30.282Z,98330.00
2022-08-24T16:18:05.842Z,98338.00
2022-08-24T16:20:42.216Z,98335.00
2022-08-24T16:23:31.590Z,98322.00
2022-08-24T16:26:24.421Z,98332.00
2022-08-24T16:29:01.017Z,98336.00
2022-08-24T16:31:50.314Z,98327.00
2022-08-24T16:34:32.655Z,98335.00
2022-08-24T16:37:08.961Z,98328.00
2022-08-24T16:39:59.686Z,98316.00
2022-08-24T16:42:43.064Z,98328.00
2022-08-24T16:45:30.789Z,98334.00
2022-08-24T16:48:09.057Z,98328.00
2022-08-24T16:50:47.161Z,98337.00
2022-08-24T16:53:28.314Z,98334.00
2022-08-24T16:56:07.743Z,98324.00
2022-08-24T16:58:42.857Z,98321.00
2022-08-24T17:01:18.864Z,98338.00
2022-08-24T17:04:06.674Z,98344.00
2022-08-24T17:06:43.132Z,98337.00
2022-08-24T17:09:21.641Z,98342.00
2022-08-24T17:12:36.188Z,98341.00
2022-08-24T17:15:15.457Z,98347.00
2022-08-24T17:18:04.229Z,98341.00
2022-08-24T17:20:39.836Z,98358.00
2022-08-24T17:23:17.511Z,98346.00
2022-08-24T17:26:23.618Z,98354.00
2022-08-24T17:29:52.495Z,98363.00
2022-08-24T17:33:16.988Z,98356.00
2022-08-24T17:35:57.973Z,98367.00
2022-08-24T17:38:33.918Z,98356.00
2022-08-24T17:41:33.978Z,98359.00
2022-08-24T17:44:11.931Z,98362.00
2022-08-24T17:47:31.388Z,98360.00
2022-08-24T17:50:46.951Z,98370.00
2022-08-24T17:53:23.983Z,98378.00
2022-08-24T17:57:05.628Z,98373.00
2022-08-24T17:59:46.988Z,98371.00
2022-08-24T18:02:22.948Z,98375.00
2022-08-24T18:05:28.362Z,98369.00
2022-08-24T18:08:10.853Z,98376.00
2022-08-24T18:11:00.204Z,98391.00
2022-08-24T18:13:49.197Z,98382.00
2022-08-24T18:16:30.616Z,98359.00
2022-08-24T18:19:06.796Z,98382.00
2022-08-24T18:21:55.523Z,98382.00
2022-08-24T18:24:32.740Z,98375.00
2022-08-24T18:27:22.073Z,98383.00
2022-08-24T18:30:08.776Z,98383.00
2022-08-24T18:32:47.826Z,98375.00
2022-08-24T18:35:25.539Z,98382.00
2022-08-24T18:38:04.116Z,98388.00
2022-08-24T18:40:52.950Z,98382.00
2022-08-24T18:43:30.155Z,98397.00
2022-08-24T18:46:19.573Z,98399.00
2022-08-24T18:48:59.697Z,98387.00
2022-08-24T18:51:44.019Z,98380.00
2022-08-24T18:54:33.330Z,98390.00
2022-08-24T18:57:26.522Z,98391.00
2022-08-24T19:03:05.969Z,98408.00
2022-08-24T19:05:45.312Z,98383.00
2022-08-24T19:08:20.708Z,98396.00
2022-08-24T19:10:59.914Z,98402.00
2022-08-24T19:13:47.640Z,98388.00
2022-08-24T19:16:26.305Z,98405.00
2022-08-24T19:19:05.570Z,98399.00
2022-08-24T19:21:59.839Z,98406.00
2022-08-24T19:24:44.025Z,98404.00
2022-08-24T19:27:25.496Z,98409.00
2022-08-24T19:30:07.238Z,98401.00
2022-08-24T19:35:40.636Z,98415.00
2022-08-24T19:38:41.417Z,98412.00
2022-08-24T19:41:24.034Z,98414.00
2022-08-24T19:44:29.515Z,98401.00
2022-08-24T19:47:05.075Z,98408.00
2022-08-24T19:49:41.555Z,98419.00
2022-08-24T19:52:55.336Z,98405.00
2022-08-24T19:55:52.952Z,98401.00
2022-08-24T19:58:47.779Z,98402.00
2022-08-24T20:01:26.068Z,98406.00
2022-08-24T20:04:00.853Z,98406.00
2022-08-24T20:06:37.780Z,98402.00
2022-08-24T20:09:12.595Z,98416.00
2022-08-24T20:11:49.641Z,98415.00
2022-08-24T20:14:29.156Z,98409.00
2022-08-24T20:17:05.551Z,98415.00
2022-08-24T20:19:40.664Z,98394.00
2022-08-24T20:22:18.434Z,98393.00
2022-08-24T20:24:53.493Z,98423.00
2022-08-24T20:27:31.293Z,98410.00
2022-08-24T20:30:22.960Z,98412.00
2022-08-24T20:32:57.436Z,98408.00
2022-08-24T20:35:32.329Z,98414.00
2022-08-24T20:38:07.879Z,98400.00
2022-08-24T20:40:47.274Z,98404.00
2022-08-24T20:43:24.909Z,98411.00
2022-08-24T20:45:59.586Z,98402.00
2022-08-24T20:48:38.197Z,98400.00
2022-08-24T20:51:16.801Z,98416.00
2022-08-24T20:53:53.336Z,98404.00
2022-08-24T20:56:32.483Z,98402.00
2022-08-24T20:59:28.345Z,98398.00
2022-08-24T21:02:02.783Z,98402.00
2022-08-24T21:04:37.332Z,98392.00
2022-08-24T21:07:13.797Z,98405.00
2022-08-24T21:09:53.940Z,98412.00
2022-08-24T21:12:32.583Z,98404.00
2022-08-24T21:15:09.741Z,98402.00
2022-08-24T21:17:46.510Z,98406.00
2022-08-24T21:20:22.045Z,98409.00
2022-08-24T21:22:56.484Z,98386.00
2022-08-24T21:25:40.961Z,98408.00
2022-08-24T21:28:18.711Z,98420.00
2022-08-24T21:30:56.534Z,98417.00
2022-08-24T21:33:57.704Z,98401.00
2022-08-24T21:36:35.521Z,98416.00
2022-08-24T21:39:11.223Z,98417.00
2022-08-24T21:41:59.140Z,98405.00
2022-08-24T21:44:41.423Z,98405.00
2022-08-24T21:47:31.055Z,98412.00
2022-08-24T21:50:06.767Z,98405.00
2022-08-24T21:52:41.799Z,98413.00
2022-08-24T21:55:29.279Z,98406.00
2022-08-24T21:58:06.012Z,98396.00
2022-08-24T22:00:40.414Z,98412.00
2022-08-24T22:03:16.614Z,98414.00
2022-08-24T22:05:51.020Z,98401.00
2022-08-24T22:08:27.838Z,98401.00
2022-08-24T22:11:12.701Z,98405.00
2022-08-24T22:13:59.256Z,98400.00
2022-08-24T22:16:37.147Z,98403.00
2022-08-24T22:19:14.015Z,98373.00
2022-08-24T22:22:13.000Z,98392.00
2022-08-24T22:24:53.680Z,98399.00
2022-08-24T22:27:28.595Z,98396.00
2022-08-24T22:30:19.430Z,98394.00
2022-08-24T22:32:59.038Z,98390.00
2022-08-24T22:35:45.486Z,98396.00
2022-08-24T22:38:20.713Z,98382.00
2022-08-24T22:40:57.160Z,98391.00
2022-08-24T22:43:51.968Z,98378.00
2022-08-24T22:46:29.163Z,98369.00
2022-08-24T22:49:05.900Z,98382.00
2022-08-24T22:51:44.113Z,98382.00
2022-08-24T22:54:19.944Z,98386.00
2022-08-24T22:56:57.471Z,98379.00
2022-08-24T22:59:37.753Z,98378.00
2022-08-24T23:02:19.961Z,98377.00
2022-08-24T23:05:00.942Z,98368.00
2022-08-24T23:08:07.086Z,98367.00
2022-08-24T23:10:42.404Z,98357.00
2022-08-24T23:13:28.070Z,98364.00
2022-08-24T23:16:28.631Z,98357.00
2022-08-24T23:19:23.131Z,98361.00
2022-08-24T23:21:58.814Z,98350.00
2022-08-24T23:24:49.908Z,98356.00
2022-08-24T23:27:25.116Z,98350.00
2022-08-24T23:30:01.254Z,98340.00
2022-08-24T23:32:41.766Z,98334.00
2022-08-24T23:35:16.897Z,98355.00
2022-08-24T23:37:53.009Z,98345.00
2022-08-24T23:40:29.241Z,98338.00
2022-08-24T23:43:03.585Z,98334.00
2022-08-24T23:45:46.864Z,98361.00
2022-08-24T23:48:22.135Z,98346.00
2022-08-24T23:50:57.265Z,98337.00
2022-08-24T23:53:34.908Z,98336.00
2022-08-24T23:56:16.253Z,98333.00
2022-08-24T23:58:54.972Z,98341.00
